Time;durP1;ratioP1;P1;durP2;ratioP2;P2;SDS_P1;SDS_P2;PMS_P1;PMS_P2;Temp;Humidity;BMP_temperature;BMP_pressure;BME280_temperature;BME280_humidity;BME280_pressure;Samples;Min_cycle;Max_cycle;Signal;HPM_P1;HPM_P2
2023/05/09 00:01:13;;;;;;;0.90;0.90;;;17.80;99.90;;;;;;5034104;28;20232;-63
2023/05/09 00:03:41;;;;;;;0.73;0.73;;;17.80;99.90;;;;;;5037714;28;20228;-63
2023/05/09 00:06:08;;;;;;;1.35;0.75;;;17.80;99.90;;;;;;5035729;28;20618;-63
2023/05/09 00:08:36;;;;;;;0.80;0.80;;;17.80;99.90;;;;;;5037823;28;20218;-63
2023/05/09 00:11:03;;;;;;;0.63;0.63;;;17.80;99.90;;;;;;5049221;28;20331;-67
2023/05/09 00:13:32;;;;;;;0.70;0.67;;;17.70;99.90;;;;;;5045019;28;20407;-65
2023/05/09 00:15:59;;;;;;;0.70;0.70;;;17.70;99.90;;;;;;5053069;28;20227;-64
2023/05/09 00:18:27;;;;;;;0.80;0.80;;;17.70;99.90;;;;;;5051515;28;20228;-64
2023/05/09 00:20:54;;;;;;;0.90;0.90;;;17.70;99.90;;;;;;5038644;28;20278;-62
2023/05/09 00:23:21;;;;;;;0.80;0.80;;;17.60;99.90;;;;;;5034678;28;20651;-64
2023/05/09 00:25:47;;;;;;;1.03;0.80;;;17.50;99.90;;;;;;5033462;28;20219;-64
2023/05/09 00:28:14;;;;;;;0.83;0.83;;;17.60;99.90;;;;;;5033353;28;20659;-64
2023/05/09 00:30:42;;;;;;;0.90;0.90;;;17.50;99.90;;;;;;5032709;28;20271;-66
2023/05/09 00:33:09;;;;;;;0.80;0.80;;;17.50;99.90;;;;;;5032047;28;20259;-63
2023/05/09 00:35:36;;;;;;;0.80;0.80;;;17.40;99.90;;;;;;5033049;28;20679;-64
2023/05/09 00:38:03;;;;;;;0.63;0.63;;;17.40;99.90;;;;;;5033337;28;20319;-63
2023/05/09 00:40:30;;;;;;;0.90;0.90;;;17.40;99.90;;;;;;5032273;28;20295;-64
2023/05/09 00:42:58;;;;;;;0.80;0.80;;;17.30;99.90;;;;;;5032766;28;20694;-64
2023/05/09 00:45:25;;;;;;;2.17;0.90;;;17.30;99.90;;;;;;5033024;28;20211;-63
2023/05/09 00:47:53;;;;;;;1.00;1.00;;;17.30;99.90;;;;;;5033186;28;20200;-64
2023/05/09 00:50:20;;;;;;;0.90;0.90;;;17.30;99.90;;;;;;5031729;28;20211;-64
2023/05/09 00:52:47;;;;;;;0.80;0.80;;;17.30;99.90;;;;;;5032808;28;20224;-64
2023/05/09 00:55:15;;;;;;;0.90;0.90;;;17.30;99.90;;;;;;5032976;28;20204;-64
2023/05/09 00:57:42;;;;;;;0.60;0.60;;;17.30;99.90;;;;;;5033005;28;20330;-64
2023/05/09 01:00:11;;;;;;;0.80;0.80;;;17.30;99.90;;;;;;5031815;28;20214;-64
2023/05/09 01:02:39;;;;;;;0.70;0.70;;;17.30;99.90;;;;;;5032733;28;20220;-65
2023/05/09 01:05:08;;;;;;;0.60;0.60;;;17.30;99.90;;;;;;5032726;28;20206;-64
2023/05/09 01:07:41;;;;;;;0.77;0.77;;;17.30;99.90;;;;;;5032405;28;20264;-64
2023/05/09 01:10:16;;;;;;;0.80;0.80;;;17.30;99.90;;;;;;5031927;28;20212;-64
2023/05/09 01:12:53;;;;;;;0.70;0.70;;;17.30;99.90;;;;;;5032610;28;20771;-64
2023/05/09 01:15:29;;;;;;;0.50;0.50;;;17.30;99.90;;;;;;5032538;28;20211;-63
2023/05/09 01:18:06;;;;;;;0.80;0.80;;;17.30;99.90;;;;;;5032365;28;20216;-63
2023/05/09 01:20:38;;;;;;;1.17;0.90;;;17.30;99.90;;;;;;5031679;28;20559;-64
2023/05/09 01:23:23;;;;;;;1.10;1.00;;;17.30;99.90;;;;;;5032294;28;20259;-63
2023/05/09 01:25:57;;;;;;;1.20;0.80;;;17.30;99.90;;;;;;5032007;28;20210;-63
2023/05/09 01:28:39;;;;;;;1.00;1.00;;;17.20;99.90;;;;;;5032202;28;20215;-63
2023/05/09 01:31:08;;;;;;;1.00;1.00;;;17.20;99.90;;;;;;5031177;28;20228;-64
2023/05/09 01:33:39;;;;;;;1.47;0.93;;;17.10;99.90;;;;;;5032013;28;20239;-64
2023/05/09 01:36:20;;;;;;;1.00;1.00;;;17.20;99.90;;;;;;5031878;28;20204;-64
2023/05/09 01:38:50;;;;;;;0.90;0.90;;;17.00;99.90;;;;;;5031979;28;20204;-63
2023/05/09 01:41:19;;;;;;;1.20;1.10;;;17.00;99.90;;;;;;5031160;28;20225;-64
2023/05/09 01:43:49;;;;;;;0.93;0.93;;;17.00;99.90;;;;;;5031814;28;20200;-64
2023/05/09 01:46:21;;;;;;;1.00;1.00;;;17.00;99.90;;;;;;5032193;28;20574;-64
2023/05/09 01:48:50;;;;;;;0.83;0.83;;;17.00;99.90;;;;;;5027589;28;20239;-63
2023/05/09 01:51:19;;;;;;;1.00;1.00;;;17.00;99.90;;;;;;5031279;28;20250;-64
2023/05/09 01:53:49;;;;;;;1.00;1.00;;;17.00;99.90;;;;;;5031786;28;20224;-64
2023/05/09 01:56:17;;;;;;;0.80;0.80;;;17.00;99.90;;;;;;5031353;28;20204;-64
2023/05/09 01:58:47;;;;;;;0.97;0.97;;;17.00;99.90;;;;;;5031781;28;20212;-65
2023/05/09 02:01:14;;;;;;;1.10;1.00;;;17.00;99.90;;;;;;5030749;28;20243;-64
2023/05/09 02:03:44;;;;;;;1.33;1.20;;;17.00;99.90;;;;;;5032032;28;20203;-69
2023/05/09 02:06:12;;;;;;;1.00;1.00;;;17.00;99.90;;;;;;5032126;28;20224;-65
2023/05/09 02:08:39;;;;;;;1.00;1.00;;;16.90;99.90;;;;;;5031615;28;20204;-65
2023/05/09 02:11:07;;;;;;;0.80;0.80;;;17.00;99.90;;;;;;5030310;28;20598;-65
2023/05/09 02:13:34;;;;;;;2.63;1.03;;;17.00;99.90;;;;;;5031236;28;20323;-66
2023/05/09 02:16:01;;;;;;;1.50;1.40;;;16.90;99.90;;;;;;5031686;28;20258;-65
2023/05/09 02:18:28;;;;;;;0.93;0.93;;;16.90;99.90;;;;;;5031162;28;20208;-66
2023/05/09 02:20:56;;;;;;;1.30;1.20;;;16.90;99.90;;;;;;5030546;28;20256;-64
2023/05/09 02:23:23;;;;;;;2.13;1.00;;;16.90;99.90;;;;;;5031248;28;20209;-65
2023/05/09 02:25:53;;;;;;;0.90;0.90;;;16.90;99.90;;;;;;5031113;28;20580;-65
2023/05/09 02:28:22;;;;;;;1.17;0.90;;;16.90;99.90;;;;;;5031053;28;20303;-65
2023/05/09 02:30:51;;;;;;;0.80;0.80;;;16.90;99.90;;;;;;5030503;28;20234;-65
2023/05/09 02:33:18;;;;;;;0.90;0.90;;;16.90;99.90;;;;;;5030837;28;20235;-64
2023/05/09 02:35:46;;;;;;;0.77;0.73;;;16.90;99.90;;;;;;5031216;28;20218;-65
2023/05/09 02:38:15;;;;;;;0.90;0.90;;;16.90;99.90;;;;;;5031064;28;20212;-65
2023/05/09 02:40:43;;;;;;;0.80;0.80;;;16.90;99.90;;;;;;5030326;28;20224;-65
2023/05/09 02:43:11;;;;;;;0.77;0.77;;;16.90;99.90;;;;;;5031201;28;20204;-65
2023/05/09 02:45:38;;;;;;;0.80;0.80;;;16.90;99.90;;;;;;5031342;28;20770;-65
2023/05/09 02:48:06;;;;;;;1.40;1.00;;;16.90;99.90;;;;;;5031391;28;20216;-65
2023/05/09 02:50:32;;;;;;;0.87;0.87;;;16.90;99.90;;;;;;5030282;28;20208;-65
2023/05/09 02:52:59;;;;;;;0.88;0.88;;;16.90;99.90;;;;;;5030837;28;20638;-65
2023/05/09 02:55:27;;;;;;;0.87;0.87;;;16.90;99.90;;;;;;5030913;28;20204;-65
2023/05/09 02:57:54;;;;;;;0.97;0.97;;;16.90;99.90;;;;;;5030214;28;20211;-65
2023/05/09 03:00:22;;;;;;;0.87;0.87;;;16.90;99.90;;;;;;5029651;28;20697;-65
2023/05/09 03:02:49;;;;;;;0.80;0.80;;;16.80;99.90;;;;;;5030660;28;20197;-64
2023/05/09 03:05:16;;;;;;;0.90;0.90;;;16.90;99.90;;;;;;5030773;28;20211;-65
2023/05/09 03:07:43;;;;;;;0.83;0.83;;;16.90;99.90;;;;;;5030181;28;20620;-65
2023/05/09 03:10:11;;;;;;;0.90;0.90;;;16.80;99.90;;;;;;5029937;28;20203;-64
2023/05/09 03:12:42;;;;;;;2.57;1.00;;;16.80;99.90;;;;;;5030840;28;20629;-65
2023/05/09 03:15:09;;;;;;;1.40;1.00;;;16.70;99.90;;;;;;5030832;28;20228;-66
2023/05/09 03:17:36;;;;;;;0.80;0.80;;;16.70;99.90;;;;;;5030615;28;20859;-65
2023/05/09 03:20:04;;;;;;;1.00;1.00;;;16.70;99.90;;;;;;5029766;28;20201;-65
2023/05/09 03:22:31;;;;;;;0.63;0.63;;;16.70;99.90;;;;;;5030846;28;20632;-64
2023/05/09 03:24:58;;;;;;;1.38;0.90;;;16.80;99.90;;;;;;5031073;28;20227;-65
2023/05/09 03:27:25;;;;;;;1.00;1.00;;;16.80;99.90;;;;;;5030883;28;20303;-65
2023/05/09 03:29:53;;;;;;;0.90;0.90;;;16.80;99.90;;;;;;5030149;28;20209;-64
2023/05/09 03:32:20;;;;;;;0.90;0.90;;;16.80;99.90;;;;;;5030520;28;20246;-65
2023/05/09 03:34:47;;;;;;;1.00;0.90;;;16.70;99.90;;;;;;5030212;28;20221;-65
2023/05/09 03:37:14;;;;;;;0.83;0.83;;;16.70;99.90;;;;;;5030538;28;20215;-65
2023/05/09 03:39:40;;;;;;;0.90;0.90;;;16.70;99.90;;;;;;5030850;28;20262;-65
2023/05/09 03:42:07;;;;;;;0.90;0.90;;;16.70;99.90;;;;;;5034108;28;20239;-64
2023/05/09 03:44:34;;;;;;;0.90;0.90;;;16.70;99.90;;;;;;5034316;28;20196;-64
2023/05/09 03:47:02;;;;;;;0.90;0.90;;;16.70;99.90;;;;;;5034093;28;20312;-64
2023/05/09 03:49:29;;;;;;;1.00;1.00;;;16.70;99.90;;;;;;5032998;28;20681;-65
2023/05/09 03:51:56;;;;;;;0.90;0.90;;;16.70;99.90;;;;;;5034025;28;20569;-65
2023/05/09 03:54:23;;;;;;;1.00;1.00;;;16.70;99.90;;;;;;5034248;28;20232;-65
2023/05/09 03:56:49;;;;;;;0.90;0.90;;;16.70;99.90;;;;;;5033696;28;20295;-65
2023/05/09 03:59:16;;;;;;;0.90;0.90;;;16.70;99.90;;;;;;5034610;28;20213;-63
2023/05/09 04:01:44;;;;;;;0.90;0.90;;;16.70;99.90;;;;;;5033526;28;20228;-63
2023/05/09 04:04:12;;;;;;;0.87;0.87;;;16.70;99.90;;;;;;5033932;28;20204;-63
2023/05/09 04:06:39;;;;;;;1.10;1.03;;;16.70;99.90;;;;;;5034218;28;20205;-63
2023/05/09 04:09:06;;;;;;;0.70;0.63;;;16.70;99.90;;;;;;5033759;28;20300;-62
2023/05/09 04:11:33;;;;;;;1.13;1.10;;;16.80;99.90;;;;;;5033428;28;20232;-63
2023/05/09 04:14:00;;;;;;;0.90;0.90;;;16.70;99.90;;;;;;5033546;28;20282;-63
2023/05/09 04:16:27;;;;;;;1.47;1.10;;;16.80;99.90;;;;;;5033605;28;20293;-62
2023/05/09 04:18:53;;;;;;;1.10;1.00;;;16.80;99.90;;;;;;5035633;28;20611;-64
2023/05/09 04:21:21;;;;;;;0.90;0.90;;;16.80;99.90;;;;;;5032437;28;20311;-64
2023/05/09 04:23:48;;;;;;;0.90;0.90;;;16.80;99.90;;;;;;5033474;28;20200;-64
2023/05/09 04:26:16;;;;;;;0.80;0.80;;;16.80;99.90;;;;;;5034790;28;20567;-64
2023/05/09 04:28:43;;;;;;;1.00;1.00;;;16.90;99.90;;;;;;5033274;28;20277;-64
2023/05/09 04:31:11;;;;;;;0.93;0.93;;;16.90;99.90;;;;;;5031940;28;20619;-64
2023/05/09 04:33:38;;;;;;;1.07;1.07;;;16.80;99.90;;;;;;5033320;28;20235;-64
2023/05/09 04:36:06;;;;;;;1.10;1.10;;;16.90;99.90;;;;;;5034756;28;20216;-64
2023/05/09 04:38:34;;;;;;;1.10;1.00;;;16.80;99.90;;;;;;5033549;28;20208;-64
2023/05/09 04:41:01;;;;;;;1.00;1.00;;;16.80;99.90;;;;;;5042899;28;20223;-64
2023/05/09 04:43:28;;;;;;;1.17;1.10;;;16.90;99.90;;;;;;5045446;28;20205;-64
2023/05/09 04:45:55;;;;;;;1.07;1.07;;;16.90;99.90;;;;;;5032949;28;20653;-64
2023/05/09 04:48:22;;;;;;;1.30;1.20;;;16.90;99.90;;;;;;5032999;28;20204;-64
2023/05/09 04:50:49;;;;;;;0.85;0.85;;;17.00;99.90;;;;;;5031710;28;20224;-64
2023/05/09 04:53:16;;;;;;;0.83;0.83;;;17.00;99.90;;;;;;5032388;28;20274;-64
2023/05/09 04:55:44;;;;;;;1.00;1.00;;;17.00;99.90;;;;;;5035368;28;20691;-64
2023/05/09 04:58:11;;;;;;;1.00;1.00;;;17.10;99.90;;;;;;5032639;28;20201;-64
2023/05/09 05:00:37;;;;;;;1.00;1.00;;;17.10;99.90;;;;;;5032005;28;20215;-64
2023/05/09 05:03:05;;;;;;;0.80;0.80;;;17.20;99.90;;;;;;5032454;28;20211;-64
2023/05/09 05:05:32;;;;;;;0.90;0.90;;;17.20;99.90;;;;;;5032680;28;20305;-64
2023/05/09 05:07:59;;;;;;;0.80;0.80;;;17.30;99.90;;;;;;5032460;28;20292;-64
2023/05/09 05:10:26;;;;;;;1.00;1.00;;;17.20;99.90;;;;;;5031608;28;20667;-63
2023/05/09 05:12:54;;;;;;;0.93;0.93;;;17.30;99.90;;;;;;5032293;28;20227;-63
2023/05/09 05:15:21;;;;;;;0.90;0.90;;;17.40;99.90;;;;;;5030394;28;20224;-63
2023/05/09 05:17:47;;;;;;;0.73;0.73;;;17.30;99.90;;;;;;5032604;28;20192;-64
2023/05/09 05:20:14;;;;;;;0.90;0.90;;;17.40;99.90;;;;;;5031556;28;20694;-64
2023/05/09 05:22:41;;;;;;;0.90;0.90;;;17.40;99.90;;;;;;5032076;28;20224;-64
2023/05/09 05:25:09;;;;;;;0.73;0.73;;;17.40;99.90;;;;;;5031909;28;20203;-64
2023/05/09 05:27:35;;;;;;;0.90;0.90;;;17.40;99.90;;;;;;5032320;28;20236;-64
2023/05/09 05:30:06;;;;;;;1.47;1.00;;;17.50;99.90;;;;;;5031524;28;20219;-64
2023/05/09 05:32:33;;;;;;;0.70;0.70;;;17.60;99.90;;;;;;5032173;28;20228;-65
2023/05/09 05:35:01;;;;;;;0.90;0.90;;;17.60;99.90;;;;;;5032465;28;20224;-64
2023/05/09 05:37:28;;;;;;;1.03;0.97;;;17.70;99.90;;;;;;5029710;28;20295;-64
2023/05/09 05:39:55;;;;;;;0.82;0.82;;;17.70;99.90;;;;;;5036618;28;20196;-64
2023/05/09 05:42:21;;;;;;;0.80;0.80;;;17.70;99.90;;;;;;5041850;28;20312;-64
2023/05/09 05:44:48;;;;;;;0.80;0.80;;;17.70;99.90;;;;;;5032192;28;20204;-65
2023/05/09 05:47:16;;;;;;;0.90;0.90;;;17.70;99.90;;;;;;5025473;28;20207;-64
2023/05/09 05:49:43;;;;;;;1.00;1.00;;;17.70;99.90;;;;;;5032110;28;20207;-64
2023/05/09 05:52:10;;;;;;;0.83;0.83;;;17.80;99.90;;;;;;5032764;28;20228;-65
2023/05/09 05:54:37;;;;;;;1.20;1.10;;;17.80;99.90;;;;;;5031999;28;20286;-64
2023/05/09 05:57:03;;;;;;;1.10;1.10;;;17.80;99.90;;;;;;5031675;28;20201;-65
2023/05/09 05:59:30;;;;;;;1.07;0.97;;;17.90;99.90;;;;;;5030863;28;20227;-64
2023/05/09 06:01:57;;;;;;;0.90;0.90;;;17.90;99.90;;;;;;5031063;28;20243;-65
2023/05/09 06:04:26;;;;;;;0.70;0.70;;;17.90;99.90;;;;;;5031863;28;20205;-64
2023/05/09 06:06:53;;;;;;;1.00;1.00;;;17.90;99.90;;;;;;5031406;28;20773;-64
2023/05/09 06:09:20;;;;;;;1.10;1.10;;;18.00;99.90;;;;;;5031159;28;20220;-64
2023/05/09 06:11:47;;;;;;;0.73;0.73;;;18.10;99.90;;;;;;5031214;28;20277;-64
2023/05/09 06:14:14;;;;;;;0.90;0.90;;;18.20;99.90;;;;;;5030718;28;20235;-64
2023/05/09 06:16:41;;;;;;;0.90;0.90;;;18.20;99.90;;;;;;5029569;28;20204;-64
2023/05/09 06:19:08;;;;;;;1.33;1.00;;;18.10;99.90;;;;;;5030644;28;20717;-64
2023/05/09 06:21:37;;;;;;;0.80;0.80;;;18.20;99.90;;;;;;5031052;28;20761;-64
2023/05/09 06:24:04;;;;;;;1.00;1.00;;;18.20;99.90;;;;;;5031314;28;20215;-64
2023/05/09 06:26:31;;;;;;;0.80;0.80;;;18.20;99.90;;;;;;5031060;28;20208;-64
2023/05/09 06:28:58;;;;;;;1.00;1.00;;;18.30;99.90;;;;;;5031254;28;20208;-65
2023/05/09 06:31:25;;;;;;;0.90;0.90;;;18.30;99.90;;;;;;5030345;28;20234;-65
2023/05/09 06:33:52;;;;;;;0.80;0.80;;;18.30;99.90;;;;;;5031094;28;20274;-65
2023/05/09 06:36:19;;;;;;;1.03;1.03;;;18.30;99.90;;;;;;5030912;28;20837;-65
2023/05/09 06:38:47;;;;;;;1.00;1.00;;;18.40;99.90;;;;;;5031293;28;20234;-65
2023/05/09 06:41:14;;;;;;;1.20;1.20;;;18.30;99.90;;;;;;5030209;28;20598;-65
2023/05/09 06:43:41;;;;;;;1.00;1.00;;;18.20;99.90;;;;;;5030987;28;20200;-65
2023/05/09 06:46:07;;;;;;;1.70;1.47;;;18.20;99.90;;;;;;5030858;28;20215;-65
2023/05/09 06:48:34;;;;;;;1.10;1.10;;;18.10;99.90;;;;;;5030716;28;20208;-65
2023/05/09 06:51:01;;;;;;;1.00;1.00;;;18.10;99.90;;;;;;5030362;28;20220;-65
2023/05/09 06:53:28;;;;;;;1.10;1.10;;;18.10;99.90;;;;;;5030869;28;20218;-66
2023/05/09 06:55:56;;;;;;;1.20;1.20;;;18.10;99.90;;;;;;5031067;28;20299;-65
2023/05/09 06:58:23;;;;;;;0.93;0.93;;;18.20;99.90;;;;;;5030890;28;20200;-65
2023/05/09 07:00:50;;;;;;;1.10;1.10;;;18.20;99.90;;;;;;5030081;28;20595;-65
2023/05/09 07:03:17;;;;;;;1.13;1.10;;;18.20;99.90;;;;;;5030733;28;20287;-65
2023/05/09 07:05:44;;;;;;;1.13;1.13;;;18.30;99.90;;;;;;5030897;28;20207;-65
2023/05/09 07:08:10;;;;;;;1.20;1.20;;;18.20;99.90;;;;;;5030877;28;20675;-65
2023/05/09 07:10:38;;;;;;;1.10;1.10;;;18.30;99.90;;;;;;5030161;28;20235;-65
2023/05/09 07:13:07;;;;;;;1.20;1.20;;;18.50;99.90;;;;;;5030776;28;20204;-65
2023/05/09 07:15:34;;;;;;;1.20;1.10;;;18.60;99.90;;;;;;5034715;28;20778;-64
2023/05/09 07:18:00;;;;;;;1.10;1.10;;;18.70;99.90;;;;;;5034516;28;20671;-65
2023/05/09 07:20:27;;;;;;;1.00;1.00;;;18.70;99.90;;;;;;5034200;28;20599;-65
2023/05/09 07:22:54;;;;;;;1.37;1.37;;;18.80;99.90;;;;;;5034893;28;20204;-65
2023/05/09 07:25:21;;;;;;;1.33;1.33;;;18.90;99.90;;;;;;5034638;28;20196;-65
2023/05/09 07:27:48;;;;;;;1.10;1.10;;;19.10;99.90;;;;;;5034523;28;20216;-66
2023/05/09 07:30:16;;;;;;;1.00;1.00;;;19.40;99.90;;;;;;5033723;28;20208;-66
2023/05/09 07:32:43;;;;;;;1.30;1.20;;;19.70;99.90;;;;;;5034233;28;20234;-65
2023/05/09 07:35:09;;;;;;;1.20;1.20;;;19.80;99.90;;;;;;5034600;28;20228;-66
2023/05/09 07:37:36;;;;;;;1.13;1.13;;;19.90;99.90;;;;;;5034273;28;20300;-66
2023/05/09 07:40:04;;;;;;;1.70;1.63;;;19.90;99.90;;;;;;5033512;28;20238;-65
2023/05/09 07:42:32;;;;;;;1.50;1.40;;;19.80;99.90;;;;;;5033916;28;20319;-65
2023/05/09 07:44:59;;;;;;;1.30;1.30;;;19.80;99.90;;;;;;5034260;28;20208;-66
2023/05/09 07:47:27;;;;;;;1.40;1.40;;;19.90;99.90;;;;;;5034351;28;20232;-64
2023/05/09 07:49:54;;;;;;;1.53;1.50;;;19.80;99.90;;;;;;5033291;28;20667;-64
2023/05/09 07:52:21;;;;;;;1.20;1.20;;;19.70;99.90;;;;;;5033921;28;20317;-64
2023/05/09 07:54:48;;;;;;;1.30;1.30;;;19.80;99.90;;;;;;5033947;28;20230;-65
2023/05/09 07:57:14;;;;;;;1.10;1.10;;;19.90;99.90;;;;;;5033985;28;20250;-65
2023/05/09 07:59:42;;;;;;;1.00;1.00;;;19.90;99.90;;;;;;5032923;28;20741;-64
2023/05/09 08:02:08;;;;;;;1.00;1.00;;;20.10;99.90;;;;;;5034026;28;20282;-65
2023/05/09 08:04:39;;;;;;;1.20;1.20;;;20.10;99.90;;;;;;5033797;28;20663;-65
2023/05/09 08:07:07;;;;;;;1.00;1.00;;;20.00;99.90;;;;;;5033633;28;20204;-64
2023/05/09 08:09:34;;;;;;;1.37;1.27;;;20.00;99.90;;;;;;5032952;28;20749;-65
2023/05/09 08:12:01;;;;;;;1.00;1.00;;;19.90;99.90;;;;;;5033128;28;20247;-65
2023/05/09 08:14:28;;;;;;;1.67;1.50;;;19.80;99.90;;;;;;5033519;28;20224;-64
2023/05/09 08:16:55;;;;;;;1.90;1.58;;;19.80;99.90;;;;;;5034200;28;20553;-65
2023/05/09 08:19:24;;;;;;;1.20;1.20;;;19.90;99.90;;;;;;5033037;28;20212;-67
2023/05/09 08:21:53;;;;;;;1.02;1.02;;;20.00;99.90;;;;;;5033315;28;20229;-67
2023/05/09 08:24:19;;;;;;;1.00;1.00;;;20.30;99.90;;;;;;5033477;28;20209;-66
2023/05/09 08:26:46;;;;;;;1.00;1.00;;;20.30;99.90;;;;;;5032731;28;20211;-66
2023/05/09 08:29:13;;;;;;;0.90;0.90;;;20.30;99.90;;;;;;5033315;28;20209;-66
2023/05/09 08:31:40;;;;;;;1.10;1.10;;;20.40;99.90;;;;;;5033671;28;20228;-66
2023/05/09 08:34:07;;;;;;;1.00;1.00;;;20.60;99.90;;;;;;5033389;28;20256;-66
2023/05/09 08:36:34;;;;;;;1.10;1.10;;;20.70;99.90;;;;;;5032902;28;20209;-66
2023/05/09 08:39:02;;;;;;;1.20;1.20;;;20.80;99.90;;;;;;5033088;28;20231;-66
2023/05/09 08:41:29;;;;;;;1.00;1.00;;;21.00;99.90;;;;;;5033185;28;20253;-67
2023/05/09 08:43:56;;;;;;;1.00;1.00;;;21.00;99.90;;;;;;5033324;28;20213;-65
2023/05/09 08:46:30;;;;;;;1.30;1.20;;;21.00;99.90;;;;;;5032999;28;20205;-65
2023/05/09 08:48:57;;;;;;;1.00;1.00;;;21.00;99.90;;;;;;5033067;28;20205;-65
2023/05/09 08:51:25;;;;;;;1.10;1.10;;;20.90;99.90;;;;;;5032420;28;20260;-65
2023/05/09 08:53:52;;;;;;;1.20;1.20;;;20.70;99.90;;;;;;5034013;28;20204;-65
2023/05/09 08:56:20;;;;;;;1.57;1.10;;;20.80;99.90;;;;;;5033066;28;20228;-65
2023/05/09 08:58:47;;;;;;;1.20;1.20;;;21.20;99.90;;;;;;5033135;28;20586;-65
2023/05/09 09:01:14;;;;;;;1.35;1.30;;;21.50;99.90;;;;;;5032608;28;20235;-65
2023/05/09 09:03:46;;;;;;;1.00;1.00;;;21.50;99.90;;;;;;5032762;28;20243;-65
2023/05/09 09:06:13;;;;;;;1.00;1.00;;;21.60;99.90;;;;;;5032632;28;20323;-65
2023/05/09 09:08:41;;;;;;;1.38;1.27;;;21.70;99.90;;;;;;5033444;28;20204;-65
2023/05/09 09:11:11;;;;;;;3.03;1.50;;;21.90;99.90;;;;;;5032234;28;20232;-65
2023/05/09 09:13:41;;;;;;;1.00;1.00;;;22.10;99.90;;;;;;5032450;28;20231;-65
2023/05/09 09:16:10;;;;;;;1.02;1.02;;;22.10;99.90;;;;;;5032508;28;20224;-65
2023/05/09 09:18:37;;;;;;;1.00;1.00;;;22.00;99.90;;;;;;5032376;28;20694;-65
2023/05/09 09:21:07;;;;;;;2.50;1.17;;;22.00;99.90;;;;;;5031962;28;20350;-65
2023/05/09 09:23:34;;;;;;;0.80;0.80;;;22.10;99.90;;;;;;5032287;28;20214;-65
2023/05/09 09:26:03;;;;;;;1.00;1.00;;;22.30;99.90;;;;;;5032607;28;20201;-65
2023/05/09 09:28:31;;;;;;;1.50;1.40;;;22.20;99.90;;;;;;5032382;28;20205;-65
2023/05/09 09:31:00;;;;;;;1.00;1.00;;;21.60;99.90;;;;;;5031329;28;20235;-65
2023/05/09 09:33:28;;;;;;;0.75;0.75;;;21.50;99.90;;;;;;5032409;28;20236;-65
2023/05/09 09:35:56;;;;;;;1.70;1.60;;;21.70;99.90;;;;;;5032039;28;20233;-65
2023/05/09 09:38:24;;;;;;;1.10;1.10;;;21.60;99.90;;;;;;5031514;28;20295;-66
2023/05/09 09:40:55;;;;;;;1.70;1.27;;;21.40;99.90;;;;;;5032266;28;20224;-65
2023/05/09 09:43:27;;;;;;;1.20;1.20;;;21.30;99.90;;;;;;5033275;28;20205;-65
2023/05/09 09:45:54;;;;;;;1.20;1.20;;;21.20;99.90;;;;;;5033060;28;20251;-65
2023/05/09 09:48:25;;;;;;;1.23;1.00;;;21.10;99.90;;;;;;5032668;28;20211;-65
2023/05/09 09:50:55;;;;;;;1.30;1.30;;;20.90;99.90;;;;;;5031043;28;20606;-65
2023/05/09 09:53:22;;;;;;;1.00;1.00;;;20.80;99.90;;;;;;5031951;28;20306;-65
2023/05/09 09:55:50;;;;;;;1.95;1.85;;;20.80;99.90;;;;;;5031869;28;20331;-65
2023/05/09 09:58:20;;;;;;;1.10;1.10;;;20.80;99.90;;;;;;5031775;28;20767;-65
2023/05/09 10:00:49;;;;;;;1.00;1.00;;;20.80;99.90;;;;;;5031007;28;20263;-65
2023/05/09 10:03:16;;;;;;;1.40;1.30;;;21.20;99.90;;;;;;5031730;28;20209;-64
2023/05/09 10:05:44;;;;;;;1.10;1.10;;;21.50;99.90;;;;;;5032036;28;20228;-64
2023/05/09 10:08:11;;;;;;;0.97;0.97;;;21.60;99.90;;;;;;5032037;28;20200;-64
2023/05/09 10:10:38;;;;;;;1.00;1.00;;;21.80;99.90;;;;;;5030480;28;20216;-64
2023/05/09 10:13:08;;;;;;;2.53;1.10;;;21.80;99.90;;;;;;5031715;28;20586;-64
2023/05/09 10:15:36;;;;;;;1.00;1.00;;;21.70;99.90;;;;;;5032506;28;20252;-64
2023/05/09 10:18:04;;;;;;;1.27;1.27;;;21.70;99.90;;;;;;5032837;28;20287;-64
2023/05/09 10:20:31;;;;;;;1.38;1.33;;;21.60;99.90;;;;;;5030807;28;20208;-64
2023/05/09 10:23:02;;;;;;;0.90;0.90;;;21.40;99.90;;;;;;5031096;28;20208;-64
2023/05/09 10:25:39;;;;;;;1.20;1.10;;;21.30;99.90;;;;;;5031333;28;20616;-64
2023/05/09 10:28:10;;;;;;;1.00;1.00;;;21.20;99.90;;;;;;5030999;28;20203;-64
2023/05/09 10:30:47;;;;;;;1.00;0.93;;;21.20;99.90;;;;;;5030630;28;20214;-65
2023/05/09 10:33:21;;;;;;;1.60;1.10;;;21.20;99.90;;;;;;5031176;28;20207;-64
2023/05/09 10:35:49;;;;;;;1.00;1.00;;;21.20;99.90;;;;;;5031017;28;20632;-65
2023/05/09 10:38:18;;;;;;;0.87;0.87;;;21.10;99.90;;;;;;5031619;28;20239;-64
2023/05/09 10:40:47;;;;;;;0.70;0.70;;;21.10;99.90;;;;;;5030781;28;20224;-64
2023/05/09 10:43:14;;;;;;;1.00;1.00;;;21.10;99.90;;;;;;5031446;28;20212;-64
2023/05/09 10:45:42;;;;;;;0.80;0.80;;;21.20;99.90;;;;;;5030925;28;20208;-64
2023/05/09 10:48:10;;;;;;;0.90;0.90;;;21.30;99.90;;;;;;5030383;28;20286;-65
2023/05/09 10:50:39;;;;;;;0.70;0.70;;;21.50;99.90;;;;;;5030147;28;20668;-64
2023/05/09 10:53:12;;;;;;;0.87;0.87;;;21.70;99.90;;;;;;5031222;28;20216;-64
2023/05/09 10:55:49;;;;;;;2.13;1.07;;;21.90;99.90;;;;;;5030972;28;20216;-64
2023/05/09 10:58:21;;;;;;;0.80;0.80;;;21.90;99.90;;;;;;5031353;28;20205;-64
2023/05/09 11:00:49;;;;;;;0.80;0.80;;;22.10;99.90;;;;;;5030467;28;20228;-64
2023/05/09 11:03:17;;;;;;;0.80;0.80;;;22.10;99.90;;;;;;5031352;28;20240;-64
2023/05/09 11:05:46;;;;;;;0.90;0.90;;;22.20;99.90;;;;;;5031057;28;20220;-65
2023/05/09 11:08:24;;;;;;;1.05;1.05;;;22.20;99.90;;;;;;5031090;28;20210;-64
2023/05/09 11:10:53;;;;;;;0.90;0.90;;;22.10;99.90;;;;;;5029539;28;20263;-64
2023/05/09 11:13:22;;;;;;;0.90;0.90;;;22.00;99.90;;;;;;5030501;28;20912;-66
2023/05/09 11:16:11;;;;;;;0.80;0.80;;;21.80;99.90;;;;;;5030792;28;20545;-64
2023/05/09 11:18:51;;;;;;;1.33;1.23;;;21.80;99.90;;;;;;5030816;28;20567;-64
2023/05/09 11:21:20;;;;;;;0.88;0.88;;;21.70;99.90;;;;;;5030522;28;20297;-64
2023/05/09 11:23:48;;;;;;;0.90;0.90;;;21.60;99.90;;;;;;5030722;28;20231;-64
2023/05/09 11:26:17;;;;;;;0.83;0.83;;;21.60;99.90;;;;;;5030782;28;20201;-66
2023/05/09 11:28:52;;;;;;;0.70;0.70;;;21.80;99.90;;;;;;5030868;28;20669;-65
2023/05/09 11:31:19;;;;;;;0.70;0.70;;;21.90;99.90;;;;;;5029865;28;20769;-65
2023/05/09 11:33:53;;;;;;;0.90;0.90;;;22.10;99.90;;;;;;5030389;28;20650;-65
2023/05/09 11:36:24;;;;;;;1.00;1.00;;;22.30;99.90;;;;;;5030018;28;20221;-65
2023/05/09 11:39:01;;;;;;;1.00;1.00;;;22.60;99.90;;;;;;5030676;28;20586;-65
2023/05/09 11:41:30;;;;;;;0.90;0.90;;;22.80;99.90;;;;;;5030212;28;20231;-65
2023/05/09 11:43:58;;;;;;;0.90;0.90;;;22.90;99.90;;;;;;5030533;28;20215;-63
2023/05/09 11:46:25;;;;;;;0.85;0.85;;;23.00;99.90;;;;;;5030253;28;20255;-64
2023/05/09 11:48:53;;;;;;;0.80;0.80;;;23.20;99.90;;;;;;5031057;28;20213;-65
2023/05/09 11:51:20;;;;;;;0.80;0.80;;;23.20;99.90;;;;;;5030312;28;20579;-64
2023/05/09 11:53:50;;;;;;;0.95;0.95;;;23.10;99.90;;;;;;5030484;28;20209;-65
2023/05/09 11:56:17;;;;;;;0.87;0.87;;;23.00;99.90;;;;;;5030311;28;20228;-65
2023/05/09 11:58:46;;;;;;;0.98;0.90;;;23.10;99.90;;;;;;5030691;28;20287;-65
2023/05/09 12:01:12;;;;;;;1.00;1.00;;;23.10;99.90;;;;;;5031038;28;20232;-65
2023/05/09 12:03:43;;;;;;;1.10;1.02;;;23.20;99.90;;;;;;5034023;28;20204;-65
2023/05/09 12:06:15;;;;;;;1.17;1.10;;;23.10;99.90;;;;;;5033602;28;20208;-64
2023/05/09 12:08:41;;;;;;;0.80;0.80;;;23.20;99.90;;;;;;5033970;28;20213;-64
2023/05/09 12:11:09;;;;;;;0.90;0.90;;;23.10;99.90;;;;;;5032510;28;20727;-64
2023/05/09 12:13:43;;;;;;;1.00;1.00;;;23.10;99.90;;;;;;5033592;28;20206;-64
2023/05/09 12:16:12;;;;;;;1.00;1.00;;;23.20;99.90;;;;;;5033961;28;20235;-67
2023/05/09 12:18:43;;;;;;;1.15;1.13;;;23.20;99.90;;;;;;5034355;28;20231;-66
2023/05/09 12:21:11;;;;;;;0.98;0.98;;;23.20;99.90;;;;;;5034307;28;20323;-66
2023/05/09 12:23:37;;;;;;;1.10;1.10;;;23.20;99.90;;;;;;5033575;28;20259;-66
2023/05/09 12:26:04;;;;;;;1.00;1.00;;;23.20;99.90;;;;;;5033176;28;20675;-67
2023/05/09 12:28:31;;;;;;;0.90;0.90;;;23.20;99.90;;;;;;5033420;28;20200;-64
2023/05/09 12:30:58;;;;;;;0.93;0.90;;;23.30;99.90;;;;;;5032503;28;20225;-64
2023/05/09 12:33:27;;;;;;;0.85;0.85;;;23.20;99.90;;;;;;5033090;28;20204;-64
2023/05/09 12:36:03;;;;;;;0.87;0.87;;;23.10;99.90;;;;;;5033054;28;20224;-64
2023/05/09 12:38:30;;;;;;;0.80;0.80;;;23.00;99.90;;;;;;5033285;28;20770;-65
2023/05/09 12:41:02;;;;;;;0.85;0.85;;;23.10;99.90;;;;;;5032350;28;20596;-65
2023/05/09 12:43:31;;;;;;;0.70;0.70;;;23.40;99.90;;;;;;5033290;28;20219;-65
2023/05/09 12:45:58;;;;;;;0.85;0.85;;;23.30;99.90;;;;;;5033049;28;20197;-65
2023/05/09 12:48:27;;;;;;;1.10;1.10;;;23.20;99.90;;;;;;5033093;28;20238;-65
2023/05/09 12:50:53;;;;;;;0.90;0.90;;;23.30;99.90;;;;;;5031972;28;20221;-65
2023/05/09 12:53:25;;;;;;;0.80;0.80;;;23.30;99.90;;;;;;5032803;28;20212;-66